createdAt,value
2018-12-13T00:00:45.484Z,18.4
2018-12-13T00:01:46.812Z,18.4
2018-12-13T00:02:49.073Z,18.5
2018-12-13T00:03:51.105Z,18.4
2018-12-13T00:04:52.999Z,18.5
2018-12-13T00:05:54.625Z,18.5
2018-12-13T00:06:56.532Z,18.4
2018-12-13T00:07:58.156Z,18.5
2018-12-13T00:08:59.774Z,18.4
2018-12-13T00:10:01.371Z,18.4
2018-12-13T00:11:02.723Z,18.5
2018-12-13T00:12:04.620Z,18.5
2018-12-13T00:13:06.240Z,18.5
2018-12-13T00:14:08.137Z,18.4
2018-12-13T00:15:10.031Z,18.5
2018-12-13T00:16:11.371Z,18.4
2018-12-13T00:17:12.994Z,18.5
2018-12-13T00:18:14.611Z,18.4
2018-12-13T00:19:15.936Z,18.5
2018-12-13T00:20:17.283Z,18.5
2018-12-13T00:21:18.661Z,18.4
2018-12-13T00:22:20.011Z,18.5
2018-12-13T00:23:21.608Z,18.5
2018-12-13T00:24:23.540Z,18.5
2018-12-13T00:25:25.436Z,18.5
2018-12-13T00:26:27.070Z,18.5
2018-12-13T00:27:28.688Z,18.4
2018-12-13T00:28:30.585Z,18.4
2018-12-13T00:29:31.929Z,18.5
2018-12-13T00:30:33.555Z,18.4
2018-12-13T00:31:35.450Z,18.5
2018-12-13T00:32:37.048Z,18.4
2018-12-13T00:33:38.944Z,18.5
2018-12-13T00:34:40.271Z,18.4
2018-12-13T00:35:42.164Z,18.4
2018-12-13T00:36:43.783Z,18.5
2018-12-13T00:37:45.107Z,18.4
2018-12-13T00:38:46.707Z,18.4
2018-12-13T00:39:47.757Z,18.5
2018-12-13T00:40:49.382Z,18.4
2018-12-13T00:41:50.726Z,18.3
2018-12-13T00:42:52.081Z,18.3
2018-12-13T00:43:53.425Z,18.3
2018-12-13T00:44:54.759Z,18.3
2018-12-13T00:45:56.664Z,18.4
2018-12-13T00:46:58.288Z,18.4
2018-12-13T00:47:59.632Z,18.4
2018-12-13T00:49:01.258Z,18.4
2018-12-13T00:50:02.579Z,18.4
2018-12-13T00:51:04.202Z,18.4
2018-12-13T00:52:05.253Z,18.5
2018-12-13T00:53:06.874Z,18.4
2018-12-13T00:54:08.492Z,18.4
2018-12-13T00:55:10.401Z,18.4
2018-12-13T00:56:12.295Z,18.5
2018-12-13T00:57:13.916Z,18.4
2018-12-13T00:58:15.242Z,18.4
2018-12-13T00:59:17.137Z,18.4
2018-12-13T01:00:18.487Z,18.4
2018-12-13T01:01:20.108Z,18.4
2018-12-13T01:02:21.433Z,18.4
2018-12-13T01:03:22.479Z,18.4
2018-12-13T01:04:23.533Z,18.4
2018-12-13T01:05:25.157Z,18.3
2018-12-13T01:06:26.760Z,18.4
2018-12-13T01:07:28.355Z,18.4
2018-12-13T01:08:30.250Z,18.4
2018-12-13T01:09:31.596Z,18.4
2018-12-13T01:10:32.940Z,18.4
2018-12-13T01:11:34.324Z,18.4
2018-12-13T01:12:35.664Z,18.4
2018-12-13T01:13:36.769Z,18.4
2018-12-13T01:14:38.366Z,18.5
2018-12-13T01:15:39.963Z,18.4
2018-12-13T01:16:41.861Z,18.4
2018-12-13T01:17:43.480Z,18.3
2018-12-13T01:18:44.888Z,18.5
2018-12-13T01:19:46.503Z,18.3
2018-12-13T01:20:47.849Z,18.4
2018-12-13T01:21:49.751Z,18.4
2018-12-13T01:22:51.639Z,18.4
2018-12-13T01:23:53.256Z,18.4
2018-12-13T01:24:54.602Z,18.4
2018-12-13T01:25:56.222Z,18.4
2018-12-13T01:26:57.277Z,18.4
2018-12-13T01:27:58.890Z,18.4
2018-12-13T01:29:00.508Z,18.4
2018-12-13T01:30:01.829Z,18.4
2018-12-13T01:31:03.451Z,18.5
2018-12-13T01:32:05.050Z,18.4
2018-12-13T01:33:06.649Z,18.3
2018-12-13T01:34:08.268Z,18.2
2018-12-13T01:35:09.623Z,18.3
2018-12-13T01:36:11.219Z,18.3
2018-12-13T01:37:12.541Z,18.4
2018-12-13T01:38:14.161Z,18.4
2018-12-13T01:39:16.052Z,18.4
2018-12-13T01:40:17.650Z,18.3
2018-12-13T01:41:19.269Z,18.2
2018-12-13T01:42:21.161Z,18.3
2018-12-13T01:43:22.760Z,18.4
2018-12-13T01:44:24.668Z,18.4
2018-12-13T01:45:26.030Z,18.3
2018-12-13T01:46:27.637Z,18.3
2018-12-13T01:47:29.257Z,18.4
2018-12-13T01:48:31.152Z,18.4
2018-12-13T01:49:32.496Z,18.4
2018-12-13T01:50:34.425Z,18.5
2018-12-13T01:51:36.023Z,18.4
2018-12-13T01:52:37.347Z,18.4
2018-12-13T01:53:38.945Z,18.3
2018-12-13T01:54:40.561Z,18.4
2018-12-13T01:55:41.881Z,18.4
2018-12-13T01:56:43.477Z,18.4
2018-12-13T01:57:45.370Z,18.4
2018-12-13T01:58:46.989Z,18.3
2018-12-13T01:59:48.609Z,18.3
2018-12-13T02:00:49.957Z,18.3
2018-12-13T02:01:51.848Z,18.3
2018-12-13T02:02:53.742Z,18.3
2018-12-13T02:03:55.640Z,18.3
2018-12-13T02:04:56.654Z,18.3
2018-12-13T02:05:57.999Z,18.3
2018-12-13T02:06:59.895Z,18.3
2018-12-13T02:08:01.242Z,18.3
2018-12-13T02:09:03.133Z,18.3
2018-12-13T02:10:04.764Z,18.3
2018-12-13T02:11:05.883Z,18.4
2018-12-13T02:12:07.501Z,18.3
2018-12-13T02:13:09.121Z,18.3
2018-12-13T02:14:10.745Z,18.3
2018-12-13T02:15:12.345Z,18.3
2018-12-13T02:16:13.970Z,18.3
2018-12-13T02:17:15.292Z,18.3
2018-12-13T02:18:16.891Z,18.3
2018-12-13T02:19:18.509Z,18.3
2018-12-13T02:20:19.856Z,18.3
2018-12-13T02:21:21.196Z,18.3
2018-12-13T02:22:23.102Z,18.3
2018-12-13T02:23:24.146Z,18.3
2018-12-13T02:24:25.771Z,18.3
2018-12-13T02:25:27.680Z,18.3
2018-12-13T02:26:29.572Z,18.3
2018-12-13T02:27:31.189Z,18.3
2018-12-13T02:28:32.802Z,18.3
2018-12-13T02:29:34.425Z,18.3
2018-12-13T02:30:36.319Z,18.3
2018-12-13T02:31:37.934Z,18.3
2018-12-13T02:32:39.557Z,18.3
2018-12-13T02:33:41.173Z,18.3
2018-12-13T02:34:42.782Z,18.3
2018-12-13T02:35:44.098Z,18.3
2018-12-13T02:36:45.717Z,18.3
2018-12-13T02:37:47.610Z,18.3
2018-12-13T02:38:48.930Z,18.3
2018-12-13T02:39:50.541Z,18.3
2018-12-13T02:40:51.865Z,18.3
2018-12-13T02:41:53.513Z,18.3
2018-12-13T02:42:55.405Z,18.3
2018-12-13T02:43:56.733Z,18.3
2018-12-13T02:44:58.348Z,18.3
2018-12-13T02:46:00.240Z,18.3
2018-12-13T02:47:01.908Z,18.4
2018-12-13T02:48:02.955Z,18.2
2018-12-13T02:49:04.848Z,18.3
2018-12-13T02:50:06.473Z,18.3
2018-12-13T02:51:08.093Z,18.4
2018-12-13T02:52:09.440Z,18.3
2018-12-13T02:53:11.333Z,18.3
2018-12-13T02:54:13.234Z,18.3
2018-12-13T02:55:14.831Z,18.3
2018-12-13T02:56:16.173Z,18.2
2018-12-13T02:57:18.070Z,18.3
2018-12-13T02:58:19.800Z,18.2
2018-12-13T02:59:21.694Z,18.2
2018-12-13T03:00:23.017Z,18.1
2018-12-13T03:01:24.090Z,18.3
2018-12-13T03:02:25.433Z,18.2
2018-12-13T03:03:27.049Z,18.2
2018-12-13T03:04:28.392Z,18.2
2018-12-13T03:05:29.733Z,18.3
2018-12-13T03:06:31.610Z,18.2
2018-12-13T03:07:33.229Z,18.3
2018-12-13T03:08:34.545Z,18.3
2018-12-13T03:09:36.167Z,18.2
2018-12-13T03:10:37.520Z,18.2
2018-12-13T03:11:39.141Z,18.2
2018-12-13T03:12:40.491Z,18.1
2018-12-13T03:13:41.537Z,18.2
2018-12-13T03:14:43.160Z,18.2
2018-12-13T03:15:44.770Z,18.2
2018-12-13T03:16:46.388Z,18.2
2018-12-13T03:17:47.730Z,18.3
2018-12-13T03:18:49.057Z,18.3
2018-12-13T03:19:50.954Z,18.1
2018-12-13T03:20:52.280Z,18.2
2018-12-13T03:21:53.935Z,18.1
2018-12-13T03:22:55.864Z,18.1
2018-12-13T03:23:57.756Z,18.1
2018-12-13T03:24:59.650Z,18.2
2018-12-13T03:26:01.250Z,18.2
2018-12-13T03:27:02.866Z,18.2
2018-12-13T03:28:04.486Z,18.2
2018-12-13T03:29:05.830Z,18.2
2018-12-13T03:30:07.959Z,18.1
2018-12-13T03:31:09.633Z,18.1
2018-12-13T03:32:11.265Z,18.1
2018-12-13T03:33:13.181Z,18.2
2018-12-13T03:34:15.097Z,18.1
2018-12-13T03:35:15.869Z,18.1
2018-12-13T03:36:17.489Z,18.1
2018-12-13T03:37:20.682Z,18.2
2018-12-13T03:38:22.234Z,18.2
2018-12-13T03:39:24.129Z,18.1
2018-12-13T03:40:25.751Z,18.3
2018-12-13T03:41:27.079Z,18.1
2018-12-13T03:42:28.431Z,18.1
2018-12-13T03:43:30.058Z,18.1
2018-12-13T03:44:31.948Z,18.3
2018-12-13T03:45:33.014Z,18.2
2018-12-13T03:46:34.901Z,18.2
2018-12-13T03:47:36.249Z,18.2
2018-12-13T03:48:37.867Z,18
2018-12-13T03:49:39.489Z,18.1
2018-12-13T03:50:41.384Z,18.2
2018-12-13T03:51:43.005Z,18.1
2018-12-13T03:52:44.347Z,18.1
2018-12-13T03:53:45.969Z,18.1
2018-12-13T03:54:47.310Z,18.2
2018-12-13T03:55:48.679Z,18.2
2018-12-13T03:56:50.572Z,18.2
2018-12-13T03:57:52.463Z,18.3
2018-12-13T03:58:54.130Z,18.1
2018-12-13T03:59:56.026Z,18.2
2018-12-13T04:00:57.921Z,18.1
2018-12-13T04:01:59.247Z,18.1
2018-12-13T04:03:01.148Z,18.3
2018-12-13T04:04:03.040Z,18.1
2018-12-13T04:05:04.381Z,18.3
2018-12-13T04:06:06.277Z,18.3
2018-12-13T04:07:07.902Z,18.1
2018-12-13T04:08:09.521Z,18.2
2018-12-13T04:09:10.840Z,18.1
2018-12-13T04:10:12.441Z,18.1
2018-12-13T04:11:14.335Z,18.2
2018-12-13T04:12:16.229Z,18.1
2018-12-13T04:13:17.827Z,18.1
2018-12-13T04:14:19.449Z,18.2
2018-12-13T04:15:21.053Z,18.2
2018-12-13T04:16:22.142Z,18.2
2018-12-13T04:17:23.803Z,18.1
2018-12-13T04:18:25.694Z,18.1
2018-12-13T04:19:27.311Z,18.2
2018-12-13T04:20:28.640Z,18.2
2018-12-13T04:21:29.960Z,18.2
2018-12-13T04:22:31.852Z,18.2
2018-12-13T04:23:33.745Z,18.2
2018-12-13T04:24:35.649Z,18.1
2018-12-13T04:25:37.566Z,18.2
2018-12-13T04:26:39.190Z,18.2
2018-12-13T04:27:41.076Z,18.1
2018-12-13T04:28:42.971Z,18.1
2018-12-13T04:29:44.866Z,18
2018-12-13T04:30:46.488Z,18.1
2018-12-13T04:31:48.386Z,18.1
2018-12-13T04:32:50.275Z,18.1
2018-12-13T04:33:51.596Z,18.1
2018-12-13T04:34:53.212Z,18.1
2018-12-13T04:35:54.829Z,18.2
2018-12-13T04:36:56.736Z,18.2
2018-12-13T04:37:58.618Z,18.2
2018-12-13T04:39:00.231Z,18.2
2018-12-13T04:40:02.154Z,18.1
2018-12-13T04:41:03.205Z,18.1
2018-12-13T04:42:04.549Z,18.1
2018-12-13T04:43:05.598Z,18.1
2018-12-13T04:44:07.194Z,18.1
2018-12-13T04:45:09.088Z,18
2018-12-13T04:46:10.981Z,18
2018-12-13T04:47:12.878Z,18
2018-12-13T04:48:13.927Z,18
2018-12-13T04:49:15.524Z,18.1
2018-12-13T04:50:16.866Z,18
2018-12-13T04:51:18.768Z,18.1
2018-12-13T04:52:20.082Z,17.9
2018-12-13T04:53:21.698Z,17.9
2018-12-13T04:54:22.748Z,18
2018-12-13T04:55:24.350Z,18
2018-12-13T04:56:26.243Z,18
2018-12-13T04:57:27.856Z,18
2018-12-13T04:58:29.751Z,18
2018-12-13T04:59:31.644Z,18
2018-12-13T05:00:33.263Z,18
2018-12-13T05:01:34.354Z,18
2018-12-13T05:02:35.968Z,17.9
2018-12-13T05:03:37.879Z,17.9
2018-12-13T05:04:39.525Z,18
2018-12-13T05:05:41.138Z,18
2018-12-13T05:06:42.760Z,17.9
2018-12-13T05:07:44.658Z,18
2018-12-13T05:08:45.999Z,17.9
2018-12-13T05:09:47.893Z,17.8
2018-12-13T05:10:49.490Z,17.8
2018-12-13T05:11:51.090Z,17.9
2018-12-13T05:12:52.734Z,17.8
2018-12-13T05:13:54.349Z,17.8
2018-12-13T05:14:55.969Z,17.8
2018-12-13T05:15:57.864Z,17.8
2018-12-13T05:16:59.482Z,17.8
2018-12-13T05:18:01.104Z,17.8
2018-12-13T05:19:02.704Z,17.8
2018-12-13T05:20:04.332Z,17.6
2018-12-13T05:21:05.930Z,17.7
2018-12-13T05:22:07.529Z,17.7
2018-12-13T05:23:09.434Z,17.7
2018-12-13T05:24:11.327Z,17.7
2018-12-13T05:25:13.224Z,17.7
2018-12-13T05:26:14.847Z,17.7
2018-12-13T05:27:16.464Z,17.8
2018-12-13T05:28:18.086Z,17.7
2018-12-13T05:29:19.700Z,17.7
2018-12-13T05:30:21.592Z,17.7
2018-12-13T05:31:23.485Z,17.8
2018-12-13T05:32:24.810Z,17.7
2018-12-13T05:33:26.705Z,17.7
2018-12-13T05:34:28.641Z,17.6
2018-12-13T05:35:29.981Z,17.6
2018-12-13T05:36:31.591Z,17.7
2018-12-13T05:37:33.505Z,17.7
2018-12-13T05:38:35.398Z,17.6
2018-12-13T05:39:37.016Z,17.5
2018-12-13T05:40:38.338Z,17.6
2018-12-13T05:41:40.233Z,17.7
2018-12-13T05:42:42.128Z,17.7
2018-12-13T05:43:43.451Z,17.8
2018-12-13T05:44:45.075Z,17.7
2018-12-13T05:45:46.962Z,17.7
2018-12-13T05:46:48.581Z,17.7
2018-12-13T05:47:50.197Z,17.7
2018-12-13T05:48:52.087Z,17.7
2018-12-13T05:49:55.117Z,17.7
2018-12-13T05:50:56.882Z,17.7
2018-12-13T05:51:58.773Z,17.7
2018-12-13T05:53:00.667Z,17.7
2018-12-13T05:54:02.099Z,17.7
2018-12-13T05:55:03.988Z,17.7
2018-12-13T05:56:05.883Z,17.7
2018-12-13T05:57:07.504Z,17.7
2018-12-13T05:58:09.101Z,17.7
2018-12-13T05:59:10.996Z,17.7
2018-12-13T06:00:12.342Z,17.5
2018-12-13T06:01:13.941Z,17.5
2018-12-13T06:02:15.833Z,17.6
2018-12-13T06:03:17.726Z,17.5
2018-12-13T06:04:19.072Z,17.5
2018-12-13T06:05:20.429Z,17.4
2018-12-13T06:06:22.048Z,17.3
2018-12-13T06:07:23.666Z,17.2
2018-12-13T06:08:24.986Z,17.1
2018-12-13T06:09:26.880Z,17.1
2018-12-13T06:10:28.500Z,17
2018-12-13T06:11:29.843Z,17.1
2018-12-13T06:12:31.461Z,17.1
2018-12-13T06:13:33.351Z,17.2
2018-12-13T06:14:35.243Z,17.3
2018-12-13T06:15:36.890Z,17.3
2018-12-13T06:16:38.216Z,17.4
2018-12-13T06:17:40.952Z,17.4
2018-12-13T06:18:42.911Z,17.3
2018-12-13T06:19:44.529Z,17.2
2018-12-13T06:20:46.423Z,17.2
2018-12-13T06:21:47.496Z,17.2
2018-12-13T06:22:49.089Z,17.3
2018-12-13T06:23:50.709Z,17.3
2018-12-13T06:24:52.333Z,17.3
2018-12-13T06:25:54.226Z,17.2
2018-12-13T06:26:55.279Z,17.2
2018-12-13T06:27:57.189Z,17.2
2018-12-13T06:28:58.810Z,17.3
2018-12-13T06:30:00.160Z,17.4
2018-12-13T06:31:08.542Z,17.3
2018-12-13T06:32:10.434Z,17.2
2018-12-13T06:33:12.035Z,17.2
2018-12-13T06:34:13.940Z,17.3
2018-12-13T06:35:15.833Z,17.3
2018-12-13T06:36:17.469Z,17.3
2018-12-13T06:37:18.817Z,17.2
2018-12-13T06:38:20.433Z,17.4
2018-12-13T06:39:22.327Z,17.2
2018-12-13T06:40:24.224Z,17.3
2018-12-13T06:41:26.145Z,17.2
2018-12-13T06:42:28.035Z,17.2
2018-12-13T06:43:29.932Z,17.3
2018-12-13T06:44:31.826Z,17.3
2018-12-13T06:45:32.879Z,17.2
2018-12-13T06:46:34.472Z,17.3
2018-12-13T06:47:36.095Z,17.4
2018-12-13T06:48:37.695Z,17.3
2018-12-13T06:49:39.290Z,17.3
2018-12-13T06:50:40.908Z,17.4
2018-12-13T06:51:43.007Z,17.4
2018-12-13T06:52:44.327Z,17.4
2018-12-13T06:53:45.943Z,17.1
2018-12-13T06:54:47.561Z,17.2
2018-12-13T06:55:49.457Z,17.2
2018-12-13T06:56:51.347Z,17.3
2018-12-13T06:57:53.255Z,17.2
2018-12-13T06:58:54.873Z,17.2
2018-12-13T06:59:55.949Z,17.3
2018-12-13T07:00:57.270Z,17.4
2018-12-13T07:01:58.891Z,17.4
2018-12-13T07:03:00.789Z,17.3
2018-12-13T07:04:02.413Z,17.2
2018-12-13T07:05:03.863Z,17.2
2018-12-13T07:06:05.762Z,17.2
2018-12-13T07:07:07.380Z,17.2
2018-12-13T07:08:08.993Z,17.2
2018-12-13T07:09:10.885Z,17.2
2018-12-13T07:10:12.487Z,17.2
2018-12-13T07:11:13.808Z,17.2
2018-12-13T07:12:15.704Z,17.3
2018-12-13T07:13:17.033Z,17.4
2018-12-13T07:14:18.352Z,17.4
2018-12-13T07:15:19.973Z,17.4
2018-12-13T07:16:21.866Z,17.3
2018-12-13T07:17:23.483Z,17.4
2018-12-13T07:18:24.803Z,17.4
2018-12-13T07:19:26.402Z,17.4
2018-12-13T07:20:28.021Z,17.3
2018-12-13T07:21:29.382Z,17.3
2018-12-13T07:22:31.002Z,17.4
2018-12-13T07:23:32.898Z,17.4
2018-12-13T07:24:33.943Z,17.4
2018-12-13T07:25:35.589Z,17.4
2018-12-13T07:26:37.207Z,17.5
2018-12-13T07:27:39.101Z,17.4
2018-12-13T07:28:40.444Z,17.4
2018-12-13T07:29:41.771Z,17.4
2018-12-13T07:30:43.390Z,17.4
2018-12-13T07:31:44.746Z,17.5
2018-12-13T07:32:46.075Z,17.5
2018-12-13T07:33:47.406Z,17.6
2018-12-13T07:34:48.744Z,17.5
2018-12-13T07:35:50.378Z,17.5
2018-12-13T07:36:51.998Z,17.5
2018-12-13T07:37:53.598Z,17.4
2018-12-13T07:38:54.946Z,17.5
2018-12-13T07:39:56.544Z,17.4
2018-12-13T07:40:58.141Z,17.4
2018-12-13T07:41:59.487Z,17.4
2018-12-13T07:43:00.815Z,17.5
2018-12-13T07:44:02.163Z,17.5
2018-12-13T07:45:03.763Z,17.3
2018-12-13T07:46:05.388Z,17.2
2018-12-13T07:47:07.281Z,17.2
2018-12-13T07:48:09.177Z,17.3
2018-12-13T07:49:11.066Z,17.4
2018-12-13T07:50:12.689Z,17.3
2018-12-13T07:51:14.010Z,17.4
2018-12-13T07:52:15.905Z,17.3
2018-12-13T07:53:17.232Z,17.4
2018-12-13T07:54:18.852Z,17.3
2018-12-13T07:55:20.469Z,17.2
2018-12-13T07:56:22.066Z,17.3
2018-12-13T07:57:23.444Z,17.2
2018-12-13T07:58:24.696Z,17.3
2018-12-13T07:59:26.314Z,17.2
2018-12-13T08:00:28.265Z,17.2
2018-12-13T08:01:29.883Z,17.2
2018-12-13T08:02:31.204Z,17.1
2018-12-13T08:03:33.097Z,17.2
2018-12-13T08:04:34.715Z,17.2
2018-12-13T08:05:36.060Z,17.2
2018-12-13T08:06:37.952Z,17.2
2018-12-13T08:07:39.571Z,17.2
2018-12-13T08:08:41.186Z,17.2
2018-12-13T08:09:42.808Z,17.2
2018-12-13T08:10:44.429Z,17.1
2018-12-13T08:11:46.050Z,17.1
2018-12-13T08:12:47.657Z,17.1
2018-12-13T08:13:49.253Z,17.1
2018-12-13T08:14:50.585Z,17.2
2018-12-13T08:15:52.207Z,17.2
2018-12-13T08:16:53.804Z,17.2
2018-12-13T08:17:55.702Z,17.2
2018-12-13T08:18:57.319Z,17
2018-12-13T08:19:58.944Z,17
2018-12-13T08:21:00.834Z,17.1
2018-12-13T08:22:02.430Z,17.1
2018-12-13T08:23:03.763Z,17.1
2018-12-13T08:24:05.374Z,17.1
2018-12-13T08:25:06.988Z,17.1
2018-12-13T08:26:08.607Z,17
2018-12-13T08:27:10.229Z,17
2018-12-13T08:28:11.829Z,17
2018-12-13T08:29:13.721Z,16.9
2018-12-13T08:30:15.715Z,16.9
2018-12-13T08:31:17.608Z,16.9
2018-12-13T08:32:19.503Z,16.9
2018-12-13T08:33:20.828Z,16.9
2018-12-13T08:34:22.188Z,17
2018-12-13T08:35:23.267Z,17.1
2018-12-13T08:36:24.869Z,17
2018-12-13T08:37:26.758Z,17
2018-12-13T08:38:28.384Z,16.9
2018-12-13T08:39:29.989Z,17
2018-12-13T08:40:31.608Z,17
2018-12-13T08:41:32.951Z,17
2018-12-13T08:42:34.292Z,17
2018-12-13T08:43:36.187Z,17
2018-12-13T08:44:38.393Z,17.1
2018-12-13T08:45:40.023Z,17.1
2018-12-13T08:46:41.338Z,17.1
2018-12-13T08:47:42.952Z,17
2018-12-13T08:48:44.848Z,16.9
2018-12-13T08:49:46.471Z,17
2018-12-13T08:50:48.118Z,16.9
2018-12-13T08:51:50.025Z,17
2018-12-13T08:52:51.658Z,16.9
2018-12-13T08:53:53.285Z,16.9
2018-12-13T08:54:55.235Z,16.8
2018-12-13T08:55:57.129Z,16.8
2018-12-13T08:56:58.729Z,17
2018-12-13T08:58:00.621Z,16.9
2018-12-13T08:59:02.263Z,16.9
2018-12-13T09:00:04.295Z,17
2018-12-13T09:01:05.984Z,16.9
2018-12-13T09:02:07.597Z,17
2018-12-13T09:03:09.491Z,17
2018-12-13T09:04:10.860Z,17
2018-12-13T09:05:12.756Z,17.1
2018-12-13T09:06:14.648Z,17
2018-12-13T09:07:16.542Z,17
2018-12-13T09:08:17.886Z,17
2018-12-13T09:09:19.514Z,17
2018-12-13T09:10:20.566Z,17.1
2018-12-13T09:11:22.197Z,17.1
2018-12-13T09:12:23.524Z,17.1
2018-12-13T09:13:25.417Z,17.1
2018-12-13T09:14:27.019Z,17.1
2018-12-13T09:15:28.911Z,17.1
2018-12-13T09:16:31.554Z,17.1
2018-12-13T09:17:33.599Z,17.1
2018-12-13T09:18:34.678Z,17.2
2018-12-13T09:19:36.332Z,17.2
2018-12-13T09:20:37.745Z,17.1
2018-12-13T09:21:39.090Z,16.9
2018-12-13T09:22:40.712Z,16.8
2018-12-13T09:23:42.347Z,17
2018-12-13T09:24:43.979Z,17.1
2018-12-13T09:25:45.603Z,16.9
2018-12-13T09:26:47.229Z,16.9
2018-12-13T09:27:48.844Z,16.9
2018-12-13T09:28:50.468Z,16.8
2018-12-13T09:29:51.788Z,17
2018-12-13T09:30:53.134Z,17
2018-12-13T09:31:55.081Z,17
2018-12-13T09:32:56.702Z,16.9
2018-12-13T09:33:58.054Z,16.9
2018-12-13T09:34:59.470Z,16.9
2018-12-13T09:36:01.070Z,16.8
2018-12-13T09:37:02.663Z,16.8
2018-12-13T09:38:03.986Z,16.8
2018-12-13T09:39:05.882Z,16.9
2018-12-13T09:40:07.783Z,16.8
2018-12-13T09:41:09.404Z,16.9
2018-12-13T09:42:10.449Z,16.8
2018-12-13T09:43:11.824Z,16.9
2018-12-13T09:44:13.438Z,16.9
2018-12-13T09:45:15.337Z,16.9
2018-12-13T09:46:17.230Z,16.9
2018-12-13T09:47:18.843Z,16.9
2018-12-13T09:48:20.757Z,16.9
2018-12-13T09:49:22.139Z,16.9
2018-12-13T09:50:23.478Z,16.9
2018-12-13T09:51:25.097Z,16.9
2018-12-13T09:52:26.495Z,16.8
2018-12-13T09:53:28.257Z,17
2018-12-13T09:54:29.871Z,16.9
2018-12-13T09:55:31.220Z,17
2018-12-13T09:56:32.839Z,17.1
2018-12-13T09:57:34.742Z,17.1
2018-12-13T09:58:35.806Z,17.1
2018-12-13T09:59:37.702Z,17
2018-12-13T10:00:39.598Z,16.9
2018-12-13T10:01:41.222Z,17
2018-12-13T10:02:42.834Z,17
2018-12-13T10:03:44.158Z,17
2018-12-13T10:04:45.775Z,17.1
2018-12-13T10:05:47.109Z,17.1
2018-12-13T10:06:48.435Z,17
2018-12-13T10:07:50.398Z,17
2018-12-13T10:08:52.013Z,17
2018-12-13T10:09:53.343Z,17
2018-12-13T10:10:54.967Z,16.9
2018-12-13T10:11:56.311Z,17
2018-12-13T10:12:58.255Z,16.9
2018-12-13T10:13:59.877Z,16.9
2018-12-13T10:15:01.501Z,16.9
2018-12-13T10:16:03.117Z,17.1
2018-12-13T10:17:04.466Z,17
2018-12-13T10:18:05.805Z,16.9
2018-12-13T10:19:07.150Z,17
2018-12-13T10:20:08.773Z,17
2018-12-13T10:21:10.387Z,16.9
2018-12-13T10:22:12.117Z,16.7
2018-12-13T10:23:13.160Z,16.9
2018-12-13T10:24:15.054Z,16.9
2018-12-13T10:25:16.441Z,16.9
2018-12-13T10:26:18.065Z,16.8
2018-12-13T10:27:19.953Z,16.7
2018-12-13T10:28:21.568Z,16.7
2018-12-13T10:29:23.164Z,16.7
2018-12-13T10:30:24.514Z,16.6
2018-12-13T10:31:26.133Z,16.7
2018-12-13T10:32:27.455Z,16.6
2018-12-13T10:33:29.346Z,16.7
2018-12-13T10:34:30.673Z,16.7
2018-12-13T10:35:32.273Z,16.9
2018-12-13T10:36:33.877Z,16.9
2018-12-13T10:37:35.774Z,16.7
2018-12-13T10:38:37.095Z,16.8
2018-12-13T10:39:38.996Z,16.7
2018-12-13T10:40:40.469Z,16.7
2018-12-13T10:41:42.138Z,16.7
2018-12-13T10:42:43.757Z,16.7
2018-12-13T10:43:44.807Z,16.8
2018-12-13T10:44:46.131Z,16.8
2018-12-13T10:45:47.753Z,16.9
2018-12-13T10:46:49.075Z,16.9
2018-12-13T10:47:50.727Z,16.7
2018-12-13T10:48:52.733Z,16.7
2018-12-13T10:49:54.233Z,16.7
2018-12-13T10:50:55.445Z,16.9
2018-12-13T10:51:57.169Z,16.8
2018-12-13T10:52:59.054Z,16.9
2018-12-13T10:54:00.916Z,16.9
2018-12-13T10:55:02.517Z,16.9
2018-12-13T10:56:04.428Z,16.9
2018-12-13T10:57:05.766Z,17
2018-12-13T10:58:07.112Z,17
2018-12-13T10:59:08.731Z,17.1
2018-12-13T11:00:10.332Z,17
2018-12-13T11:01:12.006Z,17.1
2018-12-13T11:02:13.623Z,17
2018-12-13T11:03:14.999Z,16.9
2018-12-13T11:04:16.894Z,16.9
2018-12-13T11:05:18.789Z,16.9
2018-12-13T11:06:20.410Z,17.1
2018-12-13T11:07:22.040Z,17.1
2018-12-13T11:08:23.930Z,16.9
2018-12-13T11:09:25.529Z,17
2018-12-13T11:10:26.874Z,17.2
2018-12-13T11:11:28.774Z,17.2
2018-12-13T11:12:30.669Z,17.2
2018-12-13T11:13:32.288Z,17.1
2018-12-13T11:14:34.183Z,17
2018-12-13T11:15:35.808Z,16.9
2018-12-13T11:16:37.714Z,16.7
2018-12-13T11:17:39.037Z,16.8
2018-12-13T11:18:40.986Z,16.9
2018-12-13T11:19:42.878Z,17
2018-12-13T11:20:44.229Z,16.9
2018-12-13T11:21:45.439Z,17.1
2018-12-13T11:22:47.349Z,17.1
2018-12-13T11:23:48.712Z,17.1
2018-12-13T11:24:50.044Z,17.2
2018-12-13T11:25:51.670Z,17
2018-12-13T11:26:53.672Z,17.1
2018-12-13T11:27:55.479Z,17.2
2018-12-13T11:28:57.074Z,17.2
2018-12-13T11:29:58.427Z,17.2
2018-12-13T11:31:00.322Z,17.2
2018-12-13T11:32:02.219Z,17.2
2018-12-13T11:33:03.844Z,17.3
2018-12-13T11:34:05.741Z,17.2
2018-12-13T11:35:07.358Z,17.4
2018-12-13T11:36:08.980Z,17.4
2018-12-13T11:37:10.872Z,17.4
2018-12-13T11:38:12.769Z,17.4
2018-12-13T11:39:14.387Z,17.5
2018-12-13T11:40:16.007Z,17.6
2018-12-13T11:41:17.625Z,17.5
2018-12-13T11:42:19.228Z,17.4
2018-12-13T11:43:20.836Z,17.4
2018-12-13T11:44:21.932Z,17.4
2018-12-13T11:45:23.826Z,17.4
2018-12-13T11:46:25.428Z,17.4
2018-12-13T11:47:26.756Z,17.5
2018-12-13T11:48:28.100Z,17.5
2018-12-13T11:49:30.003Z,17.3
2018-12-13T11:50:31.633Z,17.3
2018-12-13T11:51:32.947Z,17.4
2018-12-13T11:52:34.844Z,17.3
2018-12-13T11:53:36.462Z,17.3
2018-12-13T11:54:38.363Z,17.4
2018-12-13T11:55:39.982Z,17.3
2018-12-13T11:56:41.602Z,17.3
2018-12-13T11:57:43.504Z,17.1
2018-12-13T11:58:45.119Z,17.2
2018-12-13T11:59:47.919Z,17.1
2018-12-13T12:00:49.252Z,17.1
2018-12-13T12:01:50.853Z,17
2018-12-13T12:02:52.767Z,17
2018-12-13T12:03:54.663Z,17.2
2018-12-13T12:04:56.614Z,16.9
2018-12-13T12:05:58.515Z,16.9
2018-12-13T12:07:00.105Z,16.9
2018-12-13T12:08:01.731Z,16.9
2018-12-13T12:09:03.624Z,16.8
2018-12-13T12:10:05.520Z,16.9
2018-12-13T12:11:07.172Z,16.8
2018-12-13T12:12:08.829Z,16.8
2018-12-13T12:13:10.728Z,16.9
2018-12-13T12:14:12.068Z,16.9
2018-12-13T12:15:13.402Z,16.9
2018-12-13T12:16:15.022Z,17.1
2018-12-13T12:17:16.918Z,17.1
2018-12-13T12:18:18.264Z,17.1
2018-12-13T12:19:19.882Z,17.1
2018-12-13T12:20:21.780Z,17.2
2018-12-13T12:21:23.105Z,17.2
2018-12-13T12:22:24.701Z,17.2
2018-12-13T12:23:26.324Z,17.3
2018-12-13T12:24:27.658Z,17.3
2018-12-13T12:25:29.273Z,17.3
2018-12-13T12:26:31.170Z,17.3
2018-12-13T12:27:32.241Z,17.4
2018-12-13T12:28:34.194Z,17.3
2018-12-13T12:29:35.793Z,17.3
2018-12-13T12:30:37.687Z,17.3
2018-12-13T12:31:39.321Z,17.2
2018-12-13T12:32:40.673Z,17.2
2018-12-13T12:33:42.582Z,17.1
2018-12-13T12:34:44.479Z,17.1
2018-12-13T12:35:46.097Z,17.2
2018-12-13T12:36:47.715Z,17.2
2018-12-13T12:37:49.607Z,17.2
2018-12-13T12:38:51.228Z,17.1
2018-12-13T12:39:52.851Z,17
2018-12-13T12:40:54.468Z,17.1
2018-12-13T12:41:56.363Z,16.9
2018-12-13T12:42:57.987Z,16.8
2018-12-13T12:43:59.585Z,17
2018-12-13T12:45:01.202Z,17.2
2018-12-13T12:46:02.822Z,17.2
2018-12-13T12:47:04.416Z,17.3
2018-12-13T12:48:05.759Z,17.3
2018-12-13T12:49:06.809Z,17.3
2018-12-13T12:50:07.859Z,17.2
2018-12-13T12:51:09.263Z,17.4
2018-12-13T12:52:10.707Z,17.3
2018-12-13T12:53:12.058Z,17.4
2018-12-13T12:54:13.451Z,17.5
2018-12-13T12:55:15.143Z,17.6
2018-12-13T12:56:16.886Z,17.5
2018-12-13T12:57:18.783Z,17.4
2018-12-13T12:58:20.124Z,17.5
2018-12-13T12:59:21.741Z,17.4
2018-12-13T13:00:23.658Z,17.5
2018-12-13T13:01:25.329Z,17.6
2018-12-13T13:02:26.656Z,17.6
2018-12-13T13:03:28.272Z,17.6
2018-12-13T13:04:29.602Z,17.6
2018-12-13T13:05:31.215Z,17.5
2018-12-13T13:06:32.841Z,17.6
2018-12-13T13:07:34.163Z,17.6
2018-12-13T13:08:35.783Z,17.6
2018-12-13T13:09:37.741Z,17.5
2018-12-13T13:10:39.067Z,17.3
2018-12-13T13:11:40.959Z,17.3
2018-12-13T13:12:42.588Z,17.5
2018-12-13T13:13:43.660Z,17.5
2018-12-13T13:14:45.004Z,17.5
2018-12-13T13:15:46.330Z,17.5
2018-12-13T13:16:48.225Z,17.6
2018-12-13T13:17:49.882Z,17.6
2018-12-13T13:18:51.508Z,17.5
2018-12-13T13:19:52.832Z,17.6
2018-12-13T13:20:54.724Z,17.5
2018-12-13T13:21:56.356Z,17.5
2018-12-13T13:22:57.702Z,17.6
2018-12-13T13:23:59.321Z,17.6
2018-12-13T13:25:00.944Z,17.6
2018-12-13T13:26:02.562Z,17.6
2018-12-13T13:27:03.885Z,17.7
2018-12-13T13:28:05.228Z,17.7
2018-12-13T13:29:06.832Z,17.7
2018-12-13T13:30:08.735Z,17.7
2018-12-13T13:31:10.082Z,17.8
2018-12-13T13:32:11.976Z,17.8
2018-12-13T13:33:13.306Z,17.8
2018-12-13T13:34:15.383Z,17.7
2018-12-13T13:35:16.727Z,17.6
2018-12-13T13:36:18.049Z,17.8
2018-12-13T13:37:19.648Z,17.6
2018-12-13T13:38:21.541Z,17.6
2018-12-13T13:39:23.435Z,17.6
2018-12-13T13:40:25.119Z,17.6
2018-12-13T13:41:26.512Z,17.7
2018-12-13T13:42:27.860Z,17.7
2018-12-13T13:43:29.482Z,17.7
2018-12-13T13:44:30.811Z,17.7
2018-12-13T13:45:32.430Z,17.6